sensor_id;sensor_type;location;lat;lon;timestamp;pressure;altitude;pressure_sealevel;temperature;humidity
45253;BME280;63171;50.520;30.486;2023-09-12T00:00:16;100127.88;;;20.16;53.41
45253;BME280;63171;50.520;30.486;2023-09-12T00:02:53;100134.44;;;20.04;53.38
45253;BME280;63171;50.520;30.486;2023-09-12T00:03:42;100138.34;;;20.00;53.38
45253;BME280;63171;50.520;30.486;2023-09-12T00:04:34;100131.66;;;19.96;53.52
45253;BME280;63171;50.520;30.486;2023-09-12T00:05:24;100131.66;;;19.96;53.62
45253;BME280;63171;50.520;30.486;2023-09-12T00:06:13;100130.97;;;19.94;53.43
45253;BME280;63171;50.520;30.486;2023-09-12T00:07:05;100138.03;;;20.03;53.61
45253;BME280;63171;50.520;30.486;2023-09-12T00:07:54;100136.25;;;20.03;53.71
45253;BME280;63171;50.520;30.486;2023-09-12T00:08:44;100133.72;;;20.02;53.48
45253;BME280;63171;50.520;30.486;2023-09-12T00:09:35;100131.50;;;19.97;53.82
45253;BME280;63171;50.520;30.486;2023-09-12T00:10:25;100131.66;;;19.96;53.96
45253;BME280;63171;50.520;30.486;2023-09-12T00:11:15;100138.19;;;20.01;53.76
45253;BME280;63171;50.520;30.486;2023-09-12T00:12:06;100134.56;;;20.02;53.83
45253;BME280;63171;50.520;30.486;2023-09-12T00:12:55;100126.44;;;20.04;53.76
45253;BME280;63171;50.520;30.486;2023-09-12T00:13:46;100133.59;;;20.03;53.82
45253;BME280;63171;50.520;30.486;2023-09-12T00:14:36;100136.25;;;20.03;53.77
45253;BME280;63171;50.520;30.486;2023-09-12T00:15:25;100133.59;;;20.03;53.93
45253;BME280;63171;50.520;30.486;2023-09-12T00:16:16;100136.25;;;20.03;53.82
45253;BME280;63171;50.520;30.486;2023-09-12T00:17:06;100136.09;;;20.05;53.92
45253;BME280;63171;50.520;30.486;2023-09-12T00:17:55;100138.59;;;20.06;54.06
45253;BME280;63171;50.520;30.486;2023-09-12T00:18:46;100140.28;;;20.07;53.95
45253;BME280;63171;50.520;30.486;2023-09-12T00:19:37;100136.78;;;20.07;54.06
45253;BME280;63171;50.520;30.486;2023-09-12T00:20:27;100136.25;;;20.03;54.07
45253;BME280;63171;50.520;30.486;2023-09-12T00:21:17;100137.91;;;20.04;54.00
45253;BME280;63171;50.520;30.486;2023-09-12T00:22:08;100134.56;;;20.02;54.08
45253;BME280;63171;50.520;30.486;2023-09-12T00:22:58;100139.34;;;19.99;54.26
45253;BME280;63171;50.520;30.486;2023-09-12T00:23:48;100141.47;;;19.95;54.35
45253;BME280;63171;50.520;30.486;2023-09-12T00:24:39;100133.66;;;19.94;54.26
45253;BME280;63171;50.520;30.486;2023-09-12T00:25:29;100134.31;;;19.96;54.45
45253;BME280;63171;50.520;30.486;2023-09-12T00:26:19;100141.16;;;19.98;54.53
45253;BME280;63171;50.520;30.486;2023-09-12T00:27:11;100137.66;;;19.98;54.40
45253;BME280;63171;50.520;30.486;2023-09-12T00:28:01;100135.31;;;19.95;54.43
45253;BME280;63171;50.520;30.486;2023-09-12T00:28:53;100138.81;;;19.95;54.54
45253;BME280;63171;50.520;30.486;2023-09-12T00:29:43;100135.84;;;19.98;54.46
45253;BME280;63171;50.520;30.486;2023-09-12T00:30:33;100136.53;;;20.00;54.67
45253;BME280;63171;50.520;30.486;2023-09-12T00:31:24;100129.16;;;19.94;54.60
45253;BME280;63171;50.520;30.486;2023-09-12T00:32:14;100136.47;;;19.92;54.52
45253;BME280;63171;50.520;30.486;2023-09-12T00:33:04;100130.84;;;19.95;54.71
45253;BME280;63171;50.520;30.486;2023-09-12T00:33:54;100138.28;;;19.92;54.75
45253;BME280;63171;50.520;30.486;2023-09-12T00:34:45;100129.31;;;19.93;54.68
45253;BME280;63171;50.520;30.486;2023-09-12T00:35:36;100133.94;;;19.91;54.72
45253;BME280;63171;50.520;30.486;2023-09-12T00:36:26;100128.75;;;19.89;54.68
45253;BME280;63171;50.520;30.486;2023-09-12T00:37:16;100131.41;;;19.89;54.62
45253;BME280;63171;50.520;30.486;2023-09-12T00:38:08;100133.22;;;19.89;54.87
45253;BME280;63171;50.520;30.486;2023-09-12T00:38:58;100133.69;;;19.84;54.70
45253;BME280;63171;50.520;30.486;2023-09-12T00:39:48;100135.50;;;19.84;54.99
45253;BME280;63171;50.520;30.486;2023-09-12T00:40:38;100125.19;;;19.81;54.98
45253;BME280;63171;50.520;30.486;2023-09-12T00:41:28;100130.81;;;19.77;54.95
45253;BME280;63171;50.520;30.486;2023-09-12T00:42:19;100128.00;;;19.79;55.17
45253;BME280;63171;50.520;30.486;2023-09-12T00:43:08;100136.13;;;19.77;55.12
45253;BME280;63171;50.520;30.486;2023-09-12T00:44:00;100135.13;;;19.78;55.13
45253;BME280;63171;50.520;30.486;2023-09-12T00:44:50;100129.41;;;19.73;55.27
45253;BME280;63171;50.520;30.486;2023-09-12T00:45:39;100136.47;;;19.65;55.22
45253;BME280;63171;50.520;30.486;2023-09-12T00:46:31;100135.63;;;19.64;55.56
45253;BME280;63171;50.520;30.486;2023-09-12T00:47:22;100136.31;;;19.66;55.38
45253;BME280;63171;50.520;30.486;2023-09-12T00:48:14;100134.47;;;19.67;55.28
45253;BME280;63171;50.520;30.486;2023-09-12T00:49:07;100129.16;;;19.67;55.49
45253;BME280;63171;50.520;30.486;2023-09-12T00:50:00;100135.03;;;19.70;55.22
45253;BME280;63171;50.520;30.486;2023-09-12T00:50:51;100131.22;;;19.73;55.61
45253;BME280;63171;50.520;30.486;2023-09-12T00:51:42;100138.50;;;19.71;55.64
45253;BME280;63171;50.520;30.486;2023-09-12T00:52:36;100136.38;;;19.74;55.49
45253;BME280;63171;50.520;30.486;2023-09-12T00:53:28;100129.56;;;19.72;55.50
45253;BME280;63171;50.520;30.486;2023-09-12T00:54:19;100133.88;;;19.73;55.48
45253;BME280;63171;50.520;30.486;2023-09-12T00:55:09;100135.72;;;19.72;55.55
45253;BME280;63171;50.520;30.486;2023-09-12T00:55:59;100137.69;;;19.70;55.52
45253;BME280;63171;50.520;30.486;2023-09-12T00:56:49;100140.34;;;19.70;55.68
45253;BME280;63171;50.520;30.486;2023-09-12T00:57:39;100142.16;;;19.70;55.74
45253;BME280;63171;50.520;30.486;2023-09-12T00:58:29;100135.47;;;19.66;55.82
45253;BME280;63171;50.520;30.486;2023-09-12T00:59:20;100132.25;;;19.62;55.82
45253;BME280;63171;50.520;30.486;2023-09-12T01:00:12;100131.56;;;19.60;56.02
45253;BME280;63171;50.520;30.486;2023-09-12T01:01:03;100139.84;;;19.57;56.05
45253;BME280;63171;50.520;30.486;2023-09-12T01:01:53;100140.81;;;19.56;56.09
45253;BME280;63171;50.520;30.486;2023-09-12T01:02:45;100138.16;;;19.56;56.32
45253;BME280;63171;50.520;30.486;2023-09-12T01:03:36;100140.81;;;19.56;56.48
45253;BME280;63171;50.520;30.486;2023-09-12T01:04:26;100137.44;;;19.54;56.58
45253;BME280;63171;50.520;30.486;2023-09-12T01:05:18;100143.47;;;19.56;56.85
45253;BME280;63171;50.520;30.486;2023-09-12T01:06:09;100143.31;;;19.58;56.90
45253;BME280;63171;50.520;30.486;2023-09-12T01:07:00;100144.31;;;19.57;56.96
45253;BME280;63171;50.520;30.486;2023-09-12T01:07:51;100139.00;;;19.57;57.16
45253;BME280;63171;50.520;30.486;2023-09-12T01:08:42;100143.31;;;19.58;57.09
45253;BME280;63171;50.520;30.486;2023-09-12T01:09:32;100140.66;;;19.58;57.13
45253;BME280;63171;50.520;30.486;2023-09-12T01:10:23;100144.31;;;19.57;57.10
45253;BME280;63171;50.520;30.486;2023-09-12T01:11:13;100139.69;;;19.59;57.22
45253;BME280;63171;50.520;30.486;2023-09-12T01:12:04;100142.63;;;19.56;57.09
45253;BME280;63171;50.520;30.486;2023-09-12T01:12:55;100137.59;;;19.53;57.03
45253;BME280;63171;50.520;30.486;2023-09-12T01:13:45;100140.41;;;19.51;57.45
45253;BME280;63171;50.520;30.486;2023-09-12T01:14:35;100136.50;;;19.45;57.50
45253;BME280;63171;50.520;30.486;2023-09-12T01:15:26;100136.63;;;19.44;57.44
45253;BME280;63171;50.520;30.486;2023-09-12T01:16:16;100131.31;;;19.44;57.68
45253;BME280;63171;50.520;30.486;2023-09-12T01:17:06;100137.31;;;19.46;57.60
45253;BME280;63171;50.520;30.486;2023-09-12T01:17:57;100136.34;;;19.47;57.90
45253;BME280;63171;50.520;30.486;2023-09-12T01:18:47;100137.03;;;19.49;57.95
45253;BME280;63171;50.520;30.486;2023-09-12T01:19:37;100137.59;;;19.53;58.10
45253;BME280;63171;50.520;30.486;2023-09-12T01:20:31;100129.88;;;19.49;58.02
45253;BME280;63171;50.520;30.486;2023-09-12T01:21:41;100130.19;;;19.46;58.19
45253;BME280;63171;50.520;30.486;2023-09-12T01:22:53;100130.34;;;19.45;58.11
45253;BME280;63171;50.520;30.486;2023-09-12T01:23:49;100135.66;;;19.45;58.13
45253;BME280;63171;50.520;30.486;2023-09-12T01:25:34;100126.72;;;19.36;58.05
45253;BME280;63171;50.520;30.486;2023-09-12T01:26:37;100130.50;;;19.34;58.28
45253;BME280;63171;50.520;30.486;2023-09-12T01:27:33;100129.53;;;19.35;58.29
45253;BME280;63171;50.520;30.486;2023-09-12T01:28:24;100130.50;;;19.34;58.37
45253;BME280;63171;50.520;30.486;2023-09-12T01:29:16;100134.00;;;19.34;58.27
45253;BME280;63171;50.520;30.486;2023-09-12T01:30:07;100129.25;;;19.38;58.41
45253;BME280;63171;50.520;30.486;2023-09-12T01:30:58;100132.03;;;19.36;58.40
45253;BME280;63171;50.520;30.486;2023-09-12T01:31:49;100130.25;;;19.37;58.26
45253;BME280;63171;50.520;30.486;2023-09-12T01:32:40;100133.84;;;19.36;58.40
45253;BME280;63171;50.520;30.486;2023-09-12T01:33:30;100127.47;;;19.29;58.27
45253;BME280;63171;50.520;30.486;2023-09-12T01:34:20;100130.56;;;19.24;58.30
45253;BME280;63171;50.520;30.486;2023-09-12T01:35:10;100127.75;;;19.26;58.60
45253;BME280;63171;50.520;30.486;2023-09-12T01:36:00;100129.72;;;19.24;58.55
45253;BME280;63171;50.520;30.486;2023-09-12T01:36:50;100132.09;;;19.27;58.58
45253;BME280;63171;50.520;30.486;2023-09-12T01:37:39;100129.28;;;19.28;58.75
45253;BME280;63171;50.520;30.486;2023-09-12T01:38:29;100135.28;;;19.30;58.75
45253;BME280;63171;50.520;30.486;2023-09-12T01:39:20;100128.16;;;19.31;59.08
45253;BME280;63171;50.520;30.486;2023-09-12T01:40:10;100133.75;;;19.28;58.98
45253;BME280;63171;50.520;30.486;2023-09-12T01:41:01;100133.47;;;19.31;59.08
45253;BME280;63171;50.520;30.486;2023-09-12T01:41:52;100136.28;;;19.29;59.24
45253;BME280;63171;50.520;30.486;2023-09-12T01:42:46;100133.75;;;19.28;59.21
45253;BME280;63171;50.520;30.486;2023-09-12T01:43:39;100128.75;;;19.25;59.28
45253;BME280;63171;50.520;30.486;2023-09-12T01:44:30;100121.63;;;19.25;59.43
45253;BME280;63171;50.520;30.486;2023-09-12T01:45:21;100130.41;;;19.26;59.36
45253;BME280;63171;50.520;30.486;2023-09-12T01:46:13;100126.78;;;19.27;59.55
45253;BME280;63171;50.520;30.486;2023-09-12T01:47:05;100131.81;;;19.30;59.41
45253;BME280;63171;50.520;30.486;2023-09-12T01:47:56;100135.13;;;19.32;59.79
45253;BME280;63171;50.520;30.486;2023-09-12T01:48:47;100129.97;;;19.30;59.45
45253;BME280;63171;50.520;30.486;2023-09-12T01:49:42;100136.50;;;19.36;59.50
45253;BME280;63171;50.520;30.486;2023-09-12T01:50:36;100142.25;;;19.41;59.50
45253;BME280;63171;50.520;30.486;2023-09-12T01:51:26;100138.34;;;19.35;59.50
45253;BME280;63171;50.520;30.486;2023-09-12T01:52:18;100133.75;;;19.28;59.40
45253;BME280;63171;50.520;30.486;2023-09-12T01:53:09;100130.69;;;19.23;59.26
45253;BME280;63171;50.520;30.486;2023-09-12T01:54:00;100135.16;;;19.22;59.26
45253;BME280;63171;50.520;30.486;2023-09-12T01:54:50;100134.47;;;19.20;59.48
45253;BME280;63171;50.520;30.486;2023-09-12T01:55:42;100128.31;;;19.19;59.37
45253;BME280;63171;50.520;30.486;2023-09-12T01:56:33;100137.13;;;19.20;59.42
45253;BME280;63171;50.520;30.486;2023-09-12T01:57:22;100130.97;;;19.19;59.34
45253;BME280;63171;50.520;30.486;2023-09-12T01:58:15;100131.44;;;19.15;59.48
45253;BME280;63171;50.520;30.486;2023-09-12T01:59:05;100137.81;;;19.22;59.54
45253;BME280;63171;50.520;30.486;2023-09-12T01:59:56;100131.66;;;19.22;59.47
45253;BME280;63171;50.520;30.486;2023-09-12T02:00:46;100127.34;;;19.20;59.69
45253;BME280;63171;50.520;30.486;2023-09-12T02:01:35;100133.09;;;19.16;59.58
45253;BME280;63171;50.520;30.486;2023-09-12T02:02:26;100135.75;;;19.16;59.66
45253;BME280;63171;50.520;30.486;2023-09-12T02:03:15;100136.59;;;19.16;59.84
45253;BME280;63171;50.520;30.486;2023-09-12T02:04:06;100123.47;;;19.15;59.83
45253;BME280;63171;50.520;30.486;2023-09-12T02:05:05;100133.63;;;19.19;59.75
45253;BME280;63171;50.520;30.486;2023-09-12T02:05:56;100133.50;;;19.21;59.97
45253;BME280;63171;50.520;30.486;2023-09-12T02:06:47;100129.59;;;19.25;59.88
45253;BME280;63171;50.520;30.486;2023-09-12T02:07:38;100130.13;;;19.29;59.82
45253;BME280;63171;50.520;30.486;2023-09-12T02:08:28;100123.00;;;19.29;59.86
45253;BME280;63171;50.520;30.486;2023-09-12T02:09:19;100135.72;;;19.26;59.84
45253;BME280;63171;50.520;30.486;2023-09-12T02:10:10;100132.25;;;19.25;60.05
45253;BME280;63171;50.520;30.486;2023-09-12T02:11:00;100129.00;;;19.22;59.95
45253;BME280;63171;50.520;30.486;2023-09-12T02:11:51;100131.81;;;19.20;59.88
45253;BME280;63171;50.520;30.486;2023-09-12T02:12:41;100130.28;;;19.17;59.99
45253;BME280;63171;50.520;30.486;2023-09-12T02:13:32;100132.94;;;19.17;60.10
45253;BME280;63171;50.520;30.486;2023-09-12T02:14:22;100131.56;;;19.13;60.21
45253;BME280;63171;50.520;30.486;2023-09-12T02:15:12;100127.38;;;19.11;60.11
45253;BME280;63171;50.520;30.486;2023-09-12T02:16:02;100129.22;;;19.10;60.29
45253;BME280;63171;50.520;30.486;2023-09-12T02:16:53;100136.59;;;19.07;60.31
45253;BME280;63171;50.520;30.486;2023-09-12T02:17:43;100130.59;;;19.05;60.22
45253;BME280;63171;50.520;30.486;2023-09-12T02:18:33;100139.00;;;19.00;60.21
45253;BME280;63171;50.520;30.486;2023-09-12T02:19:23;100129.06;;;19.02;60.26
45253;BME280;63171;50.520;30.486;2023-09-12T02:20:13;100133.00;;;18.98;60.15
45253;BME280;63171;50.520;30.486;2023-09-12T02:21:03;100134.00;;;18.97;60.31
45253;BME280;63171;50.520;30.486;2023-09-12T02:21:54;100123.22;;;18.99;60.53
45253;BME280;63171;50.520;30.486;2023-09-12T02:22:44;100131.19;;;18.99;60.38
45253;BME280;63171;50.520;30.486;2023-09-12T02:23:34;100129.22;;;19.01;60.27
45253;BME280;63171;50.520;30.486;2023-09-12T02:24:25;100137.34;;;18.99;60.48
45253;BME280;63171;50.520;30.486;2023-09-12T02:25:15;100133.84;;;18.99;60.47
45253;BME280;63171;50.520;30.486;2023-09-12T02:26:05;100135.38;;;19.01;60.55
45253;BME280;63171;50.520;30.486;2023-09-12T02:26:55;100131.88;;;19.01;60.61
45253;BME280;63171;50.520;30.486;2023-09-12T02:27:45;100128.38;;;19.00;60.58
45253;BME280;63171;50.520;30.486;2023-09-12T02:28:37;100135.38;;;19.01;60.69
45253;BME280;63171;50.520;30.486;2023-09-12T02:29:27;100133.69;;;19.00;60.69
45253;BME280;63171;50.520;30.486;2023-09-12T02:30:17;100136.06;;;19.03;60.72
45253;BME280;63171;50.520;30.486;2023-09-12T02:31:10;100131.44;;;19.05;60.78
45253;BME280;63171;50.520;30.486;2023-09-12T02:32:00;100133.81;;;19.08;60.60
45253;BME280;63171;50.520;30.486;2023-09-12T02:32:50;100130.16;;;19.09;60.86
45253;BME280;63171;50.520;30.486;2023-09-12T02:33:40;100128.63;;;19.07;60.79
45253;BME280;63171;50.520;30.486;2023-09-12T02:34:30;100126.81;;;19.07;60.79
45253;BME280;63171;50.520;30.486;2023-09-12T02:35:20;100128.09;;;19.03;60.80
45253;BME280;63171;50.520;30.486;2023-09-12T02:36:11;100133.56;;;19.02;60.73
45253;BME280;63171;50.520;30.486;2023-09-12T02:37:01;100124.59;;;19.03;60.63
45253;BME280;63171;50.520;30.486;2023-09-12T02:37:50;100130.59;;;19.05;60.70
45253;BME280;63171;50.520;30.486;2023-09-12T02:38:41;100136.59;;;19.07;60.74
45253;BME280;63171;50.520;30.486;2023-09-12T02:39:31;100134.94;;;19.06;60.73
45253;BME280;63171;50.520;30.486;2023-09-12T02:40:21;100131.28;;;19.07;60.63
45253;BME280;63171;50.520;30.486;2023-09-12T02:41:11;100136.75;;;19.05;60.50
45253;BME280;63171;50.520;30.486;2023-09-12T02:42:01;100131.19;;;18.99;60.62
45253;BME280;63171;50.520;30.486;2023-09-12T02:42:52;100126.97;;;18.96;60.57
45253;BME280;63171;50.520;30.486;2023-09-12T02:43:44;100129.38;;;18.99;60.62
45253;BME280;63171;50.520;30.486;2023-09-12T02:44:34;100133.69;;;19.00;60.75
45253;BME280;63171;50.520;30.486;2023-09-12T02:45:24;100131.88;;;19.01;60.65
45253;BME280;63171;50.520;30.486;2023-09-12T02:46:14;100126.56;;;18.91;60.63
45253;BME280;63171;50.520;30.486;2023-09-12T02:47:05;100129.66;;;18.86;60.58
45253;BME280;63171;50.520;30.486;2023-09-12T02:47:54;100126.88;;;18.88;60.69
45253;BME280;63171;50.520;30.486;2023-09-12T02:48:45;100132.88;;;18.90;60.83
45253;BME280;63171;50.520;30.486;2023-09-12T02:49:35;100124.91;;;18.90;60.65
45253;BME280;63171;50.520;30.486;2023-09-12T02:50:25;100125.88;;;18.89;60.92
45253;BME280;63171;50.520;30.486;2023-09-12T02:51:15;100127.41;;;18.92;60.76
45253;BME280;63171;50.520;30.486;2023-09-12T02:52:05;100130.66;;;18.85;60.72
45253;BME280;63171;50.520;30.486;2023-09-12T02:52:55;100134.53;;;18.81;60.68
45253;BME280;63171;50.520;30.486;2023-09-12T02:53:45;100130.50;;;18.77;60.71
45253;BME280;63171;50.520;30.486;2023-09-12T02:54:35;100130.81;;;18.74;60.79
45253;BME280;63171;50.520;30.486;2023-09-12T02:55:25;100126.34;;;18.75;60.94
45253;BME280;63171;50.520;30.486;2023-09-12T02:56:16;100133.03;;;18.79;61.06
45253;BME280;63171;50.520;30.486;2023-09-12T02:57:06;100135.28;;;18.83;61.08
45253;BME280;63171;50.520;30.486;2023-09-12T02:57:57;100130.38;;;18.88;61.00
45253;BME280;63171;50.520;30.486;2023-09-12T02:58:48;100132.19;;;18.88;60.92
45253;BME280;63171;50.520;30.486;2023-09-12T02:59:38;100134.84;;;18.88;61.08
45253;BME280;63171;50.520;30.486;2023-09-12T03:00:28;100135.28;;;18.83;61.23
45253;BME280;63171;50.520;30.486;2023-09-12T03:01:19;100134.13;;;18.86;61.09
45253;BME280;63171;50.520;30.486;2023-09-12T03:02:10;100130.50;;;18.87;60.96
45253;BME280;63171;50.520;30.486;2023-09-12T03:03:01;100132.19;;;18.88;60.92
45253;BME280;63171;50.520;30.486;2023-09-12T03:03:50;100134.28;;;18.84;61.35
45253;BME280;63171;50.520;30.486;2023-09-12T03:04:41;100140.56;;;18.83;61.31
45253;BME280;63171;50.520;30.486;2023-09-12T03:05:31;100135.13;;;18.85;61.40
45253;BME280;63171;50.520;30.486;2023-09-12T03:06:20;100142.09;;;18.86;61.65
45253;BME280;63171;50.520;30.486;2023-09-12T03:07:11;100136.38;;;18.81;61.49
45253;BME280;63171;50.520;30.486;2023-09-12T03:08:00;100131.75;;;18.83;61.63
45253;BME280;63171;50.520;30.486;2023-09-12T03:08:50;100141.41;;;18.84;61.59
45253;BME280;63171;50.520;30.486;2023-09-12T03:09:41;100138.47;;;18.87;61.64
45253;BME280;63171;50.520;30.486;2023-09-12T03:10:31;100142.25;;;18.84;61.61
45253;BME280;63171;50.520;30.486;2023-09-12T03:11:20;100140.69;;;18.82;61.88
45253;BME280;63171;50.520;30.486;2023-09-12T03:12:11;100139.84;;;18.81;61.89
45253;BME280;63171;50.520;30.486;2023-09-12T03:13:01;100132.72;;;18.82;62.11
45253;BME280;63171;50.520;30.486;2023-09-12T03:13:53;100132.72;;;18.82;62.30
45253;BME280;63171;50.520;30.486;2023-09-12T03:14:43;100138.88;;;18.82;62.46
45253;BME280;63171;50.520;30.486;2023-09-12T03:15:36;100142.38;;;18.83;62.52
45253;BME280;63171;50.520;30.486;2023-09-12T03:16:27;100140.97;;;18.79;62.69
45253;BME280;63171;50.520;30.486;2023-09-12T03:17:17;100142.09;;;18.76;62.74
45253;BME280;63171;50.520;30.486;2023-09-12T03:18:09;100134.72;;;18.70;63.22
45253;BME280;63171;50.520;30.486;2023-09-12T03:19:00;100142.53;;;18.72;63.43
45253;BME280;63171;50.520;30.486;2023-09-12T03:19:50;100144.75;;;18.67;63.58
45253;BME280;63171;50.520;30.486;2023-09-12T03:20:40;100143.91;;;18.56;63.68
45253;BME280;63171;50.520;30.486;2023-09-12T03:21:31;100143.03;;;18.56;63.82
45253;BME280;63171;50.520;30.486;2023-09-12T03:22:20;100142.94;;;18.57;63.91
45253;BME280;63171;50.520;30.486;2023-09-12T03:23:11;100153.25;;;18.60;64.05
45253;BME280;63171;50.520;30.486;2023-09-12T03:24:01;100145.03;;;18.64;64.00
45253;BME280;63171;50.520;30.486;2023-09-12T03:24:50;100140.69;;;18.63;64.06
45253;BME280;63171;50.520;30.486;2023-09-12T03:25:41;100147.13;;;18.60;63.96
45253;BME280;63171;50.520;30.486;2023-09-12T03:26:33;100152.72;;;18.67;64.16
45253;BME280;63171;50.520;30.486;2023-09-12T03:27:23;100155.13;;;18.70;64.09
45253;BME280;63171;50.520;30.486;2023-09-12T03:28:14;100154.00;;;18.72;64.15
45253;BME280;63171;50.520;30.486;2023-09-12T03:29:05;100155.66;;;18.73;64.23
45253;BME280;63171;50.520;30.486;2023-09-12T03:29:55;100149.53;;;18.73;64.11
45253;BME280;63171;50.520;30.486;2023-09-12T03:30:46;100155.38;;;18.67;64.30
45253;BME280;63171;50.520;30.486;2023-09-12T03:31:36;100150.75;;;18.69;64.41
45253;BME280;63171;50.520;30.486;2023-09-12T03:32:27;100151.59;;;18.69;64.45
45253;BME280;63171;50.520;30.486;2023-09-12T03:33:16;100148.09;;;18.69;64.51
45253;BME280;63171;50.520;30.486;2023-09-12T03:34:06;100150.22;;;18.65;64.56
45253;BME280;63171;50.520;30.486;2023-09-12T03:34:56;100155.66;;;18.64;64.88
45253;BME280;63171;50.520;30.486;2023-09-12T03:35:46;100151.44;;;18.61;64.98
45253;BME280;63171;50.520;30.486;2023-09-12T03:36:37;100158.56;;;18.60;65.08
45253;BME280;63171;50.520;30.486;2023-09-12T03:37:28;100152.28;;;18.61;65.20
45253;BME280;63171;50.520;30.486;2023-09-12T03:38:18;100156.75;;;18.61;65.43
45253;BME280;63171;50.520;30.486;2023-09-12T03:39:09;100158.56;;;18.60;65.63
45253;BME280;63171;50.520;30.486;2023-09-12T03:40:03;100162.34;;;18.58;65.73
45253;BME280;63171;50.520;30.486;2023-09-12T03:40:54;100160.66;;;18.57;65.78
45253;BME280;63171;50.520;30.486;2023-09-12T03:41:44;100157.28;;;18.55;65.99
45253;BME280;63171;50.520;30.486;2023-09-12T03:42:34;100152.25;;;18.52;66.21
45253;BME280;63171;50.520;30.486;2023-09-12T03:43:24;100160.66;;;18.47;66.21
45253;BME280;63171;50.520;30.486;2023-09-12T03:44:16;100156.72;;;18.42;66.34
45253;BME280;63171;50.520;30.486;2023-09-12T03:45:08;100147.38;;;18.38;66.72
45253;BME280;63171;50.520;30.486;2023-09-12T03:45:58;100159.66;;;18.39;66.84
45253;BME280;63171;50.520;30.486;2023-09-12T03:46:47;100159.38;;;18.32;66.94
45253;BME280;63171;50.520;30.486;2023-09-12T03:47:38;100156.28;;;18.27;67.20
45253;BME280;63171;50.520;30.486;2023-09-12T03:48:28;100163.13;;;18.20;67.34
45253;BME280;63171;50.520;30.486;2023-09-12T03:49:19;100161.47;;;18.19;67.53
45253;BME280;63171;50.520;30.486;2023-09-12T03:50:11;100162.00;;;18.22;67.89
45253;BME280;63171;50.520;30.486;2023-09-12T03:51:01;100161.47;;;18.19;67.86
45253;BME280;63171;50.520;30.486;2023-09-12T03:51:50;100160.03;;;18.15;68.04
45253;BME280;63171;50.520;30.486;2023-09-12T03:52:41;100159.78;;;18.18;68.37
45253;BME280;63171;50.520;30.486;2023-09-12T03:53:31;100164.09;;;18.19;68.42
45253;BME280;63171;50.520;30.486;2023-09-12T03:54:21;100163.81;;;18.12;68.50
45253;BME280;63171;50.520;30.486;2023-09-12T03:55:11;100166.59;;;18.11;68.57
45253;BME280;63171;50.520;30.486;2023-09-12T03:56:02;100160.03;;;18.05;68.72
45253;BME280;63171;50.520;30.486;2023-09-12T03:56:52;100160.19;;;18.04;68.95
45253;BME280;63171;50.520;30.486;2023-09-12T03:57:43;100164.75;;;18.01;68.87
45253;BME280;63171;50.520;30.486;2023-09-12T03:58:32;100166.69;;;17.99;69.21
45253;BME280;63171;50.520;30.486;2023-09-12T03:59:23;100166.28;;;17.94;69.13
45253;BME280;63171;50.520;30.486;2023-09-12T04:00:15;100170.59;;;17.95;69.47
45253;BME280;63171;50.520;30.486;2023-09-12T04:01:09;100164.75;;;17.92;69.28
45253;BME280;63171;50.520;30.486;2023-09-12T04:02:01;100164.75;;;17.92;69.47
45253;BME280;63171;50.520;30.486;2023-09-12T04:02:52;100162.34;;;17.89;69.58
45253;BME280;63171;50.520;30.486;2023-09-12T04:03:43;100165.00;;;17.89;69.79
45253;BME280;63171;50.520;30.486;2023-09-12T04:04:34;100169.44;;;17.88;69.64
45253;BME280;63171;50.520;30.486;2023-09-12T04:05:25;100173.22;;;17.86;69.62
45253;BME280;63171;50.520;30.486;2023-09-12T04:06:14;100172.38;;;17.85;69.92
45253;BME280;63171;50.520;30.486;2023-09-12T04:07:05;100166.09;;;17.86;69.87
45253;BME280;63171;50.520;30.486;2023-09-12T04:07:56;100170.19;;;17.90;69.84
45253;BME280;63171;50.520;30.486;2023-09-12T04:08:45;100170.88;;;17.92;69.85
45253;BME280;63171;50.520;30.486;2023-09-12T04:09:36;100173.91;;;17.88;70.00
45253;BME280;63171;50.520;30.486;2023-09-12T04:10:26;100167.22;;;17.84;69.90
45253;BME280;63171;50.520;30.486;2023-09-12T04:11:16;100180.75;;;17.81;69.91
45253;BME280;63171;50.520;30.486;2023-09-12T04:12:07;100179.19;;;17.78;69.96
45253;BME280;63171;50.520;30.486;2023-09-12T04:12:58;100166.94;;;17.77;69.92
45253;BME280;63171;50.520;30.486;2023-09-12T04:13:48;100173.63;;;17.81;70.14
45253;BME280;63171;50.520;30.486;2023-09-12T04:14:40;100171.38;;;17.77;70.04
45253;BME280;63171;50.520;30.486;2023-09-12T04:15:30;100174.88;;;17.77;70.09
45253;BME280;63171;50.520;30.486;2023-09-12T04:16:21;100173.06;;;17.78;70.27
45253;BME280;63171;50.520;30.486;2023-09-12T04:17:11;100176.56;;;17.78;70.38
45253;BME280;63171;50.520;30.486;2023-09-12T04:18:02;100177.53;;;17.77;70.20
45253;BME280;63171;50.520;30.486;2023-09-12T04:18:52;100177.53;;;17.77;70.21
45253;BME280;63171;50.520;30.486;2023-09-12T04:19:42;100177.38;;;17.79;70.40
45253;BME280;63171;50.520;30.486;2023-09-12T04:20:33;100178.03;;;17.71;70.42
45253;BME280;63171;50.520;30.486;2023-09-12T04:21:23;100172.75;;;17.71;70.21
45253;BME280;63171;50.520;30.486;2023-09-12T04:22:14;100175.63;;;17.68;70.33
45253;BME280;63171;50.520;30.486;2023-09-12T04:23:03;100176.75;;;17.65;70.17
45253;BME280;63171;50.520;30.486;2023-09-12T04:23:53;100184.81;;;17.64;70.04
45253;BME280;63171;50.520;30.486;2023-09-12T04:24:44;100181.44;;;17.62;70.13